sensor_id;sensor_type;location;lat;lon;timestamp;temperature;humidity
22950;DHT22;11641;51.018;4.474;2022-08-11T00:00:11;23.60;75.80
22950;DHT22;11641;51.018;4.474;2022-08-11T00:02:41;23.60;76.50
22950;DHT22;11641;51.018;4.474;2022-08-11T00:05:15;23.60;76.60
22950;DHT22;11641;51.018;4.474;2022-08-11T00:07:52;23.60;76.90
22950;DHT22;11641;51.018;4.474;2022-08-11T00:10:29;23.50;76.80
22950;DHT22;11641;51.018;4.474;2022-08-11T00:13:02;23.50;77.10
22950;DHT22;11641;51.018;4.474;2022-08-11T00:15:43;23.40;78.30
22950;DHT22;11641;51.018;4.474;2022-08-11T00:18:12;23.40;78.80
22950;DHT22;11641;51.018;4.474;2022-08-11T00:20:41;23.30;80.00
22950;DHT22;11641;51.018;4.474;2022-08-11T00:23:14;23.30;80.80
22950;DHT22;11641;51.018;4.474;2022-08-11T00:25:46;23.20;80.90
22950;DHT22;11641;51.018;4.474;2022-08-11T00:28:33;23.20;80.80
22950;DHT22;11641;51.018;4.474;2022-08-11T00:31:07;23.20;81.70
22950;DHT22;11641;51.018;4.474;2022-08-11T00:33:39;23.10;82.10
22950;DHT22;11641;51.018;4.474;2022-08-11T00:36:08;23.00;82.50
22950;DHT22;11641;51.018;4.474;2022-08-11T00:38:39;23.00;83.40
22950;DHT22;11641;51.018;4.474;2022-08-11T00:41:09;23.00;84.30
22950;DHT22;11641;51.018;4.474;2022-08-11T00:50:37;22.90;85.70
22950;DHT22;11641;51.018;4.474;2022-08-11T00:53:33;22.90;86.10
22950;DHT22;11641;51.018;4.474;2022-08-11T01:04:10;22.60;88.70
22950;DHT22;11641;51.018;4.474;2022-08-11T01:07:06;22.60;89.40
22950;DHT22;11641;51.018;4.474;2022-08-11T01:12:55;22.50;90.70
22950;DHT22;11641;51.018;4.474;2022-08-11T01:48:43;22.20;94.60
22950;DHT22;11641;51.018;4.474;2022-08-11T02:00:19;22.00;96.20
22950;DHT22;11641;51.018;4.474;2022-08-11T02:03:11;21.90;96.80
22950;DHT22;11641;51.018;4.474;2022-08-11T02:05:45;21.90;97.10
22950;DHT22;11641;51.018;4.474;2022-08-11T02:11:32;21.80;97.70
22950;DHT22;11641;51.018;4.474;2022-08-11T02:20:00;21.70;98.90
22950;DHT22;11641;51.018;4.474;2022-08-11T02:23:09;21.70;99.00
22950;DHT22;11641;51.018;4.474;2022-08-11T02:26:25;21.60;99.50
22950;DHT22;11641;51.018;4.474;2022-08-11T02:34:54;21.50;99.90
22950;DHT22;11641;51.018;4.474;2022-08-11T02:48:55;21.40;99.90
22950;DHT22;11641;51.018;4.474;2022-08-11T02:54:55;21.30;99.90
22950;DHT22;11641;51.018;4.474;2022-08-11T02:57:35;21.30;99.90
22950;DHT22;11641;51.018;4.474;2022-08-11T03:00:06;21.20;99.90
22950;DHT22;11641;51.018;4.474;2022-08-11T03:05:43;21.10;99.90
22950;DHT22;11641;51.018;4.474;2022-08-11T03:08:44;21.10;99.90
22950;DHT22;11641;51.018;4.474;2022-08-11T03:14:42;21.00;99.90
22950;DHT22;11641;51.018;4.474;2022-08-11T03:17:35;20.90;99.90
22950;DHT22;11641;51.018;4.474;2022-08-11T03:20:14;20.90;99.90
22950;DHT22;11641;51.018;4.474;2022-08-11T03:23:02;20.90;99.90
22950;DHT22;11641;51.018;4.474;2022-08-11T03:31:04;20.80;99.90
22950;DHT22;11641;51.018;4.474;2022-08-11T03:33:43;20.80;99.90
22950;DHT22;11641;51.018;4.474;2022-08-11T03:47:44;20.50;99.90
22950;DHT22;11641;51.018;4.474;2022-08-11T03:50:46;20.50;99.90
22950;DHT22;11641;51.018;4.474;2022-08-11T03:56:40;20.50;99.90
22950;DHT22;11641;51.018;4.474;2022-08-11T03:59:28;20.40;99.90
22950;DHT22;11641;51.018;4.474;2022-08-11T04:29:05;20.20;99.90
22950;DHT22;11641;51.018;4.474;2022-08-11T04:35:08;20.20;99.90
22950;DHT22;11641;51.018;4.474;2022-08-11T04:46:31;20.10;99.90
22950;DHT22;11641;51.018;4.474;2022-08-11T05:13:09;20.20;99.90
22950;DHT22;11641;51.018;4.474;2022-08-11T05:15:57;20.20;99.90
22950;DHT22;11641;51.018;4.474;2022-08-11T05:18:53;20.30;99.90
22950;DHT22;11641;51.018;4.474;2022-08-11T05:21:40;20.30;99.90
22950;DHT22;11641;51.018;4.474;2022-08-11T05:24:45;20.40;99.90
22950;DHT22;11641;51.018;4.474;2022-08-11T05:27:49;20.50;99.90
22950;DHT22;11641;51.018;4.474;2022-08-11T05:30:40;20.50;99.90
22950;DHT22;11641;51.018;4.474;2022-08-11T05:34:02;20.50;99.90
22950;DHT22;11641;51.018;4.474;2022-08-11T05:36:57;20.50;99.90
22950;DHT22;11641;51.018;4.474;2022-08-11T05:39:30;20.50;99.90
22950;DHT22;11641;51.018;4.474;2022-08-11T05:42:21;20.60;99.90
22950;DHT22;11641;51.018;4.474;2022-08-11T05:45:14;20.60;99.90
22950;DHT22;11641;51.018;4.474;2022-08-11T05:48:00;20.60;99.90
22950;DHT22;11641;51.018;4.474;2022-08-11T05:50:52;20.60;99.90
22950;DHT22;11641;51.018;4.474;2022-08-11T05:53:46;20.60;99.90
22950;DHT22;11641;51.018;4.474;2022-08-11T05:56:32;20.70;99.90
22950;DHT22;11641;51.018;4.474;2022-08-11T05:58:58;20.70;99.90
22950;DHT22;11641;51.018;4.474;2022-08-11T06:01:28;20.80;99.90
22950;DHT22;11641;51.018;4.474;2022-08-11T06:04:05;20.80;99.90
22950;DHT22;11641;51.018;4.474;2022-08-11T06:06:57;20.80;99.90
22950;DHT22;11641;51.018;4.474;2022-08-11T06:09:47;20.90;99.90
22950;DHT22;11641;51.018;4.474;2022-08-11T06:14:56;21.00;99.90
22950;DHT22;11641;51.018;4.474;2022-08-11T06:17:26;21.10;99.90
22950;DHT22;11641;51.018;4.474;2022-08-11T06:19:59;21.20;99.90
22950;DHT22;11641;51.018;4.474;2022-08-11T06:22:27;21.20;99.90
22950;DHT22;11641;51.018;4.474;2022-08-11T06:24:57;21.20;99.90
22950;DHT22;11641;51.018;4.474;2022-08-11T06:27:26;21.30;99.90
22950;DHT22;11641;51.018;4.474;2022-08-11T06:29:56;21.40;99.90
22950;DHT22;11641;51.018;4.474;2022-08-11T06:32:25;21.40;99.90
22950;DHT22;11641;51.018;4.474;2022-08-11T06:35:06;21.50;99.90
22950;DHT22;11641;51.018;4.474;2022-08-11T06:41:17;21.70;99.90
22950;DHT22;11641;51.018;4.474;2022-08-11T06:46:47;21.90;99.90
22950;DHT22;11641;51.018;4.474;2022-08-11T06:49:14;22.10;99.90
22950;DHT22;11641;51.018;4.474;2022-08-11T06:52:07;22.10;99.90
22950;DHT22;11641;51.018;4.474;2022-08-11T06:54:36;22.20;99.90
22950;DHT22;11641;51.018;4.474;2022-08-11T06:57:09;22.30;99.90
22950;DHT22;11641;51.018;4.474;2022-08-11T06:59:55;22.40;99.90
22950;DHT22;11641;51.018;4.474;2022-08-11T07:02:52;22.60;99.90
22950;DHT22;11641;51.018;4.474;2022-08-11T07:12:06;22.90;99.90
22950;DHT22;11641;51.018;4.474;2022-08-11T07:14:55;23.00;99.90
22950;DHT22;11641;51.018;4.474;2022-08-11T07:17:45;23.10;99.90
22950;DHT22;11641;51.018;4.474;2022-08-11T07:20:16;23.20;99.90
22950;DHT22;11641;51.018;4.474;2022-08-11T07:23:02;23.20;99.90
22950;DHT22;11641;51.018;4.474;2022-08-11T07:25:51;23.40;99.90
22950;DHT22;11641;51.018;4.474;2022-08-11T07:28:43;23.50;99.90
22950;DHT22;11641;51.018;4.474;2022-08-11T07:31:36;23.70;99.90
22950;DHT22;11641;51.018;4.474;2022-08-11T07:34:35;23.80;99.90
22950;DHT22;11641;51.018;4.474;2022-08-11T07:37:11;23.90;99.90
22950;DHT22;11641;51.018;4.474;2022-08-11T07:39:43;24.00;99.90
22950;DHT22;11641;51.018;4.474;2022-08-11T07:42:12;24.10;99.90
22950;DHT22;11641;51.018;4.474;2022-08-11T07:44:45;24.30;99.90
22950;DHT22;11641;51.018;4.474;2022-08-11T07:47:30;24.30;99.90
22950;DHT22;11641;51.018;4.474;2022-08-11T07:50:14;24.40;99.90
22950;DHT22;11641;51.018;4.474;2022-08-11T07:53:02;24.50;99.90
22950;DHT22;11641;51.018;4.474;2022-08-11T07:55:32;24.50;99.90
22950;DHT22;11641;51.018;4.474;2022-08-11T07:58:00;24.70;99.90
22950;DHT22;11641;51.018;4.474;2022-08-11T08:00:52;24.90;99.90
22950;DHT22;11641;51.018;4.474;2022-08-11T08:03:38;25.00;99.90
22950;DHT22;11641;51.018;4.474;2022-08-11T08:06:24;25.10;99.90
22950;DHT22;11641;51.018;4.474;2022-08-11T08:09:10;25.30;99.90
22950;DHT22;11641;51.018;4.474;2022-08-11T08:11:56;25.50;99.40
22950;DHT22;11641;51.018;4.474;2022-08-11T08:14:43;25.60;99.10
22950;DHT22;11641;51.018;4.474;2022-08-11T08:17:28;25.80;98.00
22950;DHT22;11641;51.018;4.474;2022-08-11T08:20:16;25.90;97.00
22950;DHT22;11641;51.018;4.474;2022-08-11T08:23:06;26.10;96.70
22950;DHT22;11641;51.018;4.474;2022-08-11T08:25:34;26.20;96.30
22950;DHT22;11641;51.018;4.474;2022-08-11T08:28:05;26.30;95.90
22950;DHT22;11641;51.018;4.474;2022-08-11T08:30:32;26.50;95.50
22950;DHT22;11641;51.018;4.474;2022-08-11T08:33:21;26.60;94.90
22950;DHT22;11641;51.018;4.474;2022-08-11T08:35:52;26.60;94.40
22950;DHT22;11641;51.018;4.474;2022-08-11T08:38:38;26.70;94.00
22950;DHT22;11641;51.018;4.474;2022-08-11T08:41:04;26.90;93.40
22950;DHT22;11641;51.018;4.474;2022-08-11T08:43:31;27.20;92.70
22950;DHT22;11641;51.018;4.474;2022-08-11T08:45:57;27.30;92.00
22950;DHT22;11641;51.018;4.474;2022-08-11T08:48:32;27.50;91.20
22950;DHT22;11641;51.018;4.474;2022-08-11T08:51:02;27.70;90.60
22950;DHT22;11641;51.018;4.474;2022-08-11T08:53:52;27.80;88.30
22950;DHT22;11641;51.018;4.474;2022-08-11T08:56:24;27.90;85.30
22950;DHT22;11641;51.018;4.474;2022-08-11T08:58:52;28.20;83.70
22950;DHT22;11641;51.018;4.474;2022-08-11T09:01:22;28.40;81.00
22950;DHT22;11641;51.018;4.474;2022-08-11T09:03:50;28.60;79.90
22950;DHT22;11641;51.018;4.474;2022-08-11T09:06:16;28.70;79.50
22950;DHT22;11641;51.018;4.474;2022-08-11T09:08:44;28.80;80.40
22950;DHT22;11641;51.018;4.474;2022-08-11T09:11:11;28.90;79.00
22950;DHT22;11641;51.018;4.474;2022-08-11T09:13:56;29.00;78.50
22950;DHT22;11641;51.018;4.474;2022-08-11T09:16:23;29.30;78.20
22950;DHT22;11641;51.018;4.474;2022-08-11T09:18:52;29.40;77.60
22950;DHT22;11641;51.018;4.474;2022-08-11T09:21:20;29.50;76.40
22950;DHT22;11641;51.018;4.474;2022-08-11T09:23:48;29.60;76.00
22950;DHT22;11641;51.018;4.474;2022-08-11T09:26:34;29.80;76.50
22950;DHT22;11641;51.018;4.474;2022-08-11T09:29:22;30.00;75.40
22950;DHT22;11641;51.018;4.474;2022-08-11T09:31:48;30.10;72.50
22950;DHT22;11641;51.018;4.474;2022-08-11T09:34:15;30.30;72.00
22950;DHT22;11641;51.018;4.474;2022-08-11T09:36:44;30.50;71.50
22950;DHT22;11641;51.018;4.474;2022-08-11T09:39:30;30.80;69.80
22950;DHT22;11641;51.018;4.474;2022-08-11T09:42:14;30.90;70.20
22950;DHT22;11641;51.018;4.474;2022-08-11T09:44:43;31.10;68.00
22950;DHT22;11641;51.018;4.474;2022-08-11T09:47:21;31.50;66.50
22950;DHT22;11641;51.018;4.474;2022-08-11T09:49:48;32.20;64.50
22950;DHT22;11641;51.018;4.474;2022-08-11T09:52:19;32.80;60.70
22950;DHT22;11641;51.018;4.474;2022-08-11T09:54:48;33.40;59.20
22950;DHT22;11641;51.018;4.474;2022-08-11T09:57:20;33.60;57.70
22950;DHT22;11641;51.018;4.474;2022-08-11T10:00:10;34.20;56.10
22950;DHT22;11641;51.018;4.474;2022-08-11T10:02:41;35.00;55.40
22950;DHT22;11641;51.018;4.474;2022-08-11T10:05:09;36.00;53.20
22950;DHT22;11641;51.018;4.474;2022-08-11T10:08:03;36.80;50.30
22950;DHT22;11641;51.018;4.474;2022-08-11T10:10:35;38.10;49.80
22950;DHT22;11641;51.018;4.474;2022-08-11T10:13:08;38.60;47.70
22950;DHT22;11641;51.018;4.474;2022-08-11T10:15:35;39.90;45.50
22950;DHT22;11641;51.018;4.474;2022-08-11T10:18:18;40.90;44.00
22950;DHT22;11641;51.018;4.474;2022-08-11T10:21:08;42.10;42.10
22950;DHT22;11641;51.018;4.474;2022-08-11T10:23:36;43.00;40.00
22950;DHT22;11641;51.018;4.474;2022-08-11T10:26:26;43.90;38.20
22950;DHT22;11641;51.018;4.474;2022-08-11T10:29:11;44.40;37.00
22950;DHT22;11641;51.018;4.474;2022-08-11T10:31:57;44.70;35.30
22950;DHT22;11641;51.018;4.474;2022-08-11T10:34:44;45.50;34.90
22950;DHT22;11641;51.018;4.474;2022-08-11T10:37:11;46.50;33.30
22950;DHT22;11641;51.018;4.474;2022-08-11T10:39:38;46.90;32.90
22950;DHT22;11641;51.018;4.474;2022-08-11T10:42:07;47.00;33.30
22950;DHT22;11641;51.018;4.474;2022-08-11T10:44:54;47.80;31.50
22950;DHT22;11641;51.018;4.474;2022-08-11T10:47:21;47.80;31.50
22950;DHT22;11641;51.018;4.474;2022-08-11T10:50:12;48.00;31.00
22950;DHT22;11641;51.018;4.474;2022-08-11T10:52:58;47.90;30.50
22950;DHT22;11641;51.018;4.474;2022-08-11T10:55:44;48.20;30.00
22950;DHT22;11641;51.018;4.474;2022-08-11T10:58:30;48.20;30.10
22950;DHT22;11641;51.018;4.474;2022-08-11T11:01:33;48.40;29.30
22950;DHT22;11641;51.018;4.474;2022-08-11T11:04:03;48.80;29.60
22950;DHT22;11641;51.018;4.474;2022-08-11T11:07:02;48.90;29.60
22950;DHT22;11641;51.018;4.474;2022-08-11T11:09:36;49.40;29.20
22950;DHT22;11641;51.018;4.474;2022-08-11T11:14:53;50.40;28.50
22950;DHT22;11641;51.018;4.474;2022-08-11T11:17:44;50.60;28.40
22950;DHT22;11641;51.018;4.474;2022-08-11T11:23:17;51.10;27.70
22950;DHT22;11641;51.018;4.474;2022-08-11T11:35:02;50.70;28.00
22950;DHT22;11641;51.018;4.474;2022-08-11T11:37:32;51.40;26.90
22950;DHT22;11641;51.018;4.474;2022-08-11T11:40:05;51.00;27.40
22950;DHT22;11641;51.018;4.474;2022-08-11T11:42:35;51.00;27.20
22950;DHT22;11641;51.018;4.474;2022-08-11T11:45:02;51.10;27.20
22950;DHT22;11641;51.018;4.474;2022-08-11T11:47:30;51.70;27.30
22950;DHT22;11641;51.018;4.474;2022-08-11T11:49:57;52.10;26.80
22950;DHT22;11641;51.018;4.474;2022-08-11T11:52:27;52.80;26.50
22950;DHT22;11641;51.018;4.474;2022-08-11T11:54:55;53.60;25.80
22950;DHT22;11641;51.018;4.474;2022-08-11T11:57:26;53.50;25.90
22950;DHT22;11641;51.018;4.474;2022-08-11T12:00:12;53.80;25.90
22950;DHT22;11641;51.018;4.474;2022-08-11T12:03:02;54.00;25.30
22950;DHT22;11641;51.018;4.474;2022-08-11T12:05:32;53.20;25.60
22950;DHT22;11641;51.018;4.474;2022-08-11T12:07:58;53.40;26.10
22950;DHT22;11641;51.018;4.474;2022-08-11T12:10:58;53.60;25.10
22950;DHT22;11641;51.018;4.474;2022-08-11T12:13:48;53.60;25.00
22950;DHT22;11641;51.018;4.474;2022-08-11T12:16:18;53.40;25.00
22950;DHT22;11641;51.018;4.474;2022-08-11T12:18:48;54.00;25.10
22950;DHT22;11641;51.018;4.474;2022-08-11T12:21:17;54.20;24.90
22950;DHT22;11641;51.018;4.474;2022-08-11T12:23:46;54.10;24.50
22950;DHT22;11641;51.018;4.474;2022-08-11T12:26:33;54.30;24.60
22950;DHT22;11641;51.018;4.474;2022-08-11T12:29:18;54.50;24.70
22950;DHT22;11641;51.018;4.474;2022-08-11T12:31:44;55.00;24.30
22950;DHT22;11641;51.018;4.474;2022-08-11T12:34:12;54.90;24.20
22950;DHT22;11641;51.018;4.474;2022-08-11T12:37:08;55.00;24.20
22950;DHT22;11641;51.018;4.474;2022-08-11T12:39:47;55.30;24.20
22950;DHT22;11641;51.018;4.474;2022-08-11T12:42:34;55.00;24.00
22950;DHT22;11641;51.018;4.474;2022-08-11T12:45:24;55.40;23.90
22950;DHT22;11641;51.018;4.474;2022-08-11T12:51:02;54.10;24.00
22950;DHT22;11641;51.018;4.474;2022-08-11T12:54:13;52.60;24.10
22950;DHT22;11641;51.018;4.474;2022-08-11T12:56:46;53.60;23.90
22950;DHT22;11641;51.018;4.474;2022-08-11T12:59:31;53.90;23.70
22950;DHT22;11641;51.018;4.474;2022-08-11T13:02:19;54.10;24.10
22950;DHT22;11641;51.018;4.474;2022-08-11T13:05:10;53.00;24.10
22950;DHT22;11641;51.018;4.474;2022-08-11T13:07:36;52.90;24.00
22950;DHT22;11641;51.018;4.474;2022-08-11T13:10:08;52.80;23.80
22950;DHT22;11641;51.018;4.474;2022-08-11T13:12:34;53.00;23.70
22950;DHT22;11641;51.018;4.474;2022-08-11T13:15:23;53.10;23.80
22950;DHT22;11641;51.018;4.474;2022-08-11T13:17:51;54.00;23.40
22950;DHT22;11641;51.018;4.474;2022-08-11T13:20:22;53.90;23.70
22950;DHT22;11641;51.018;4.474;2022-08-11T13:22:51;54.40;23.30
22950;DHT22;11641;51.018;4.474;2022-08-11T13:25:18;54.80;22.80
22950;DHT22;11641;51.018;4.474;2022-08-11T13:27:48;55.00;22.90
22950;DHT22;11641;51.018;4.474;2022-08-11T13:30:16;55.00;22.80
22950;DHT22;11641;51.018;4.474;2022-08-11T13:33:02;54.80;23.10
22950;DHT22;11641;51.018;4.474;2022-08-11T13:35:32;55.00;23.00
22950;DHT22;11641;51.018;4.474;2022-08-11T13:38:00;55.60;22.60
22950;DHT22;11641;51.018;4.474;2022-08-11T13:40:27;55.90;22.90
22950;DHT22;11641;51.018;4.474;2022-08-11T13:42:56;56.00;22.40
22950;DHT22;11641;51.018;4.474;2022-08-11T13:45:26;56.00;22.60
22950;DHT22;11641;51.018;4.474;2022-08-11T13:47:55;55.70;22.30
22950;DHT22;11641;51.018;4.474;2022-08-11T13:50:25;55.50;22.70
22950;DHT22;11641;51.018;4.474;2022-08-11T13:53:10;55.80;22.40
22950;DHT22;11641;51.018;4.474;2022-08-11T13:55:41;55.40;22.50
22950;DHT22;11641;51.018;4.474;2022-08-11T13:58:12;55.60;22.10
22950;DHT22;11641;51.018;4.474;2022-08-11T14:00:39;55.20;23.10
22950;DHT22;11641;51.018;4.474;2022-08-11T14:03:09;55.10;22.60
22950;DHT22;11641;51.018;4.474;2022-08-11T14:05:40;55.40;22.40
22950;DHT22;11641;51.018;4.474;2022-08-11T14:08:12;55.10;22.00
22950;DHT22;11641;51.018;4.474;2022-08-11T14:10:41;55.30;22.10
22950;DHT22;11641;51.018;4.474;2022-08-11T14:13:15;55.70;22.00
22950;DHT22;11641;51.018;4.474;2022-08-11T14:16:04;55.90;22.00
22950;DHT22;11641;51.018;4.474;2022-08-11T14:18:33;56.50;21.80
22950;DHT22;11641;51.018;4.474;2022-08-11T14:21:03;56.50;21.90
22950;DHT22;11641;51.018;4.474;2022-08-11T14:23:53;56.40;22.00
22950;DHT22;11641;51.018;4.474;2022-08-11T14:26:24;56.90;21.60
22950;DHT22;11641;51.018;4.474;2022-08-11T14:29:16;55.90;22.20
22950;DHT22;11641;51.018;4.474;2022-08-11T14:31:46;56.00;22.10
22950;DHT22;11641;51.018;4.474;2022-08-11T14:34:13;56.20;22.10
22950;DHT22;11641;51.018;4.474;2022-08-11T14:36:43;56.40;21.80
22950;DHT22;11641;51.018;4.474;2022-08-11T14:39:13;56.20;21.80
22950;DHT22;11641;51.018;4.474;2022-08-11T14:41:46;56.00;21.80
22950;DHT22;11641;51.018;4.474;2022-08-11T14:44:34;55.60;21.80
22950;DHT22;11641;51.018;4.474;2022-08-11T14:47:20;55.30;21.90
22950;DHT22;11641;51.018;4.474;2022-08-11T14:49:48;55.70;22.10
22950;DHT22;11641;51.018;4.474;2022-08-11T14:52:17;55.20;22.60
22950;DHT22;11641;51.018;4.474;2022-08-11T14:54:51;55.20;22.40
22950;DHT22;11641;51.018;4.474;2022-08-11T14:57:38;55.70;22.60
22950;DHT22;11641;51.018;4.474;2022-08-11T15:00:07;56.10;22.10
22950;DHT22;11641;51.018;4.474;2022-08-11T15:02:38;55.60;22.20
22950;DHT22;11641;51.018;4.474;2022-08-11T15:05:31;55.00;22.70
22950;DHT22;11641;51.018;4.474;2022-08-11T15:07:58;55.60;22.80
22950;DHT22;11641;51.018;4.474;2022-08-11T15:10:25;55.40;22.30
22950;DHT22;11641;51.018;4.474;2022-08-11T15:12:51;55.20;22.30
22950;DHT22;11641;51.018;4.474;2022-08-11T15:15:19;55.30;22.50
22950;DHT22;11641;51.018;4.474;2022-08-11T15:18:11;55.50;22.50
22950;DHT22;11641;51.018;4.474;2022-08-11T15:20:38;55.30;22.40
22950;DHT22;11641;51.018;4.474;2022-08-11T15:23:22;55.40;22.50
22950;DHT22;11641;51.018;4.474;2022-08-11T15:26:21;55.50;22.50
22950;DHT22;11641;51.018;4.474;2022-08-11T15:29:10;55.40;22.80
22950;DHT22;11641;51.018;4.474;2022-08-11T15:31:57;55.60;22.40
22950;DHT22;11641;51.018;4.474;2022-08-11T15:34:41;55.50;22.30
22950;DHT22;11641;51.018;4.474;2022-08-11T15:37:28;55.90;22.30
22950;DHT22;11641;51.018;4.474;2022-08-11T15:43:10;55.60;22.40
22950;DHT22;11641;51.018;4.474;2022-08-11T15:45:57;55.30;22.30
22950;DHT22;11641;51.018;4.474;2022-08-11T15:48:36;55.00;22.50
22950;DHT22;11641;51.018;4.474;2022-08-11T15:51:32;53.70;22.80
22950;DHT22;11641;51.018;4.474;2022-08-11T15:53:57;53.60;22.80
22950;DHT22;11641;51.018;4.474;2022-08-11T15:56:26;53.90;22.90
22950;DHT22;11641;51.018;4.474;2022-08-11T15:58:56;53.70;22.70
22950;DHT22;11641;51.018;4.474;2022-08-11T16:01:43;53.70;22.70
22950;DHT22;11641;51.018;4.474;2022-08-11T16:04:29;53.80;22.60
22950;DHT22;11641;51.018;4.474;2022-08-11T16:07:01;53.60;22.90
22950;DHT22;11641;51.018;4.474;2022-08-11T16:12:08;53.50;22.70
22950;DHT22;11641;51.018;4.474;2022-08-11T16:14:38;53.20;22.60
22950;DHT22;11641;51.018;4.474;2022-08-11T16:17:25;53.20;23.10
22950;DHT22;11641;51.018;4.474;2022-08-11T16:19:55;53.10;22.90
22950;DHT22;11641;51.018;4.474;2022-08-11T16:22:28;52.70;22.80
22950;DHT22;11641;51.018;4.474;2022-08-11T16:25:13;52.30;22.90
22950;DHT22;11641;51.018;4.474;2022-08-11T16:27:46;51.60;23.10
22950;DHT22;11641;51.018;4.474;2022-08-11T16:30:15;51.70;23.00
22950;DHT22;11641;51.018;4.474;2022-08-11T16:32:44;51.70;23.20
22950;DHT22;11641;51.018;4.474;2022-08-11T16:35:18;51.80;22.90
22950;DHT22;11641;51.018;4.474;2022-08-11T16:38:05;52.00;23.10
22950;DHT22;11641;51.018;4.474;2022-08-11T16:40:52;51.40;22.90
22950;DHT22;11641;51.018;4.474;2022-08-11T16:43:22;51.30;23.00
22950;DHT22;11641;51.018;4.474;2022-08-11T16:46:07;51.20;23.30
22950;DHT22;11641;51.018;4.474;2022-08-11T16:48:53;51.20;23.40
22950;DHT22;11641;51.018;4.474;2022-08-11T16:51:20;50.70;23.60
22950;DHT22;11641;51.018;4.474;2022-08-11T16:53:48;50.30;23.70
22950;DHT22;11641;51.018;4.474;2022-08-11T16:56:19;50.20;23.80
22950;DHT22;11641;51.018;4.474;2022-08-11T16:58:56;50.00;23.80
22950;DHT22;11641;51.018;4.474;2022-08-11T17:01:45;49.90;24.20
22950;DHT22;11641;51.018;4.474;2022-08-11T17:04:16;49.40;24.90
22950;DHT22;11641;51.018;4.474;2022-08-11T17:07:03;49.20;24.90
22950;DHT22;11641;51.018;4.474;2022-08-11T17:09:49;48.70;25.50
22950;DHT22;11641;51.018;4.474;2022-08-11T17:12:35;48.90;25.80
22950;DHT22;11641;51.018;4.474;2022-08-11T17:15:22;49.10;26.10
22950;DHT22;11641;51.018;4.474;2022-08-11T17:18:12;49.30;25.90
22950;DHT22;11641;51.018;4.474;2022-08-11T17:20:59;49.10;25.80
22950;DHT22;11641;51.018;4.474;2022-08-11T17:23:27;48.40;26.00
22950;DHT22;11641;51.018;4.474;2022-08-11T17:26:17;48.10;25.60
22950;DHT22;11641;51.018;4.474;2022-08-11T17:28:44;47.70;25.90
22950;DHT22;11641;51.018;4.474;2022-08-11T17:31:13;47.30;26.40
22950;DHT22;11641;51.018;4.474;2022-08-11T17:33:58;47.10;26.60
22950;DHT22;11641;51.018;4.474;2022-08-11T17:36:44;46.80;27.00
22950;DHT22;11641;51.018;4.474;2022-08-11T17:39:14;46.50;27.00
22950;DHT22;11641;51.018;4.474;2022-08-11T17:41:44;45.80;27.40
22950;DHT22;11641;51.018;4.474;2022-08-11T17:44:30;45.50;27.80
22950;DHT22;11641;51.018;4.474;2022-08-11T17:47:15;45.00;28.00
22950;DHT22;11641;51.018;4.474;2022-08-11T17:50:02;44.90;27.80
22950;DHT22;11641;51.018;4.474;2022-08-11T17:52:29;44.80;28.00
22950;DHT22;11641;51.018;4.474;2022-08-11T17:55:14;44.50;28.50
22950;DHT22;11641;51.018;4.474;2022-08-11T17:58:01;43.90;28.70
22950;DHT22;11641;51.018;4.474;2022-08-11T18:00:50;43.00;29.40
22950;DHT22;11641;51.018;4.474;2022-08-11T18:03:20;42.20;29.70
22950;DHT22;11641;51.018;4.474;2022-08-11T18:05:59;41.20;30.40
22950;DHT22;11641;51.018;4.474;2022-08-11T18:08:32;40.20;31.40
22950;DHT22;11641;51.018;4.474;2022-08-11T18:11:21;39.20;32.10
22950;DHT22;11641;51.018;4.474;2022-08-11T18:14:08;38.10;33.20
22950;DHT22;11641;51.018;4.474;2022-08-11T18:16:53;37.30;34.40
22950;DHT22;11641;51.018;4.474;2022-08-11T18:19:37;36.50;35.60
22950;DHT22;11641;51.018;4.474;2022-08-11T18:22:25;35.90;36.10
22950;DHT22;11641;51.018;4.474;2022-08-11T18:25:24;35.40;36.60
22950;DHT22;11641;51.018;4.474;2022-08-11T18:28:11;34.80;37.60
22950;DHT22;11641;51.018;4.474;2022-08-11T18:30:58;34.30;38.40
22950;DHT22;11641;51.018;4.474;2022-08-11T18:33:53;33.90;39.10
22950;DHT22;11641;51.018;4.474;2022-08-11T18:36:46;33.50;40.00
22950;DHT22;11641;51.018;4.474;2022-08-11T18:39:35;33.20;40.20
22950;DHT22;11641;51.018;4.474;2022-08-11T18:42:24;32.90;41.30
22950;DHT22;11641;51.018;4.474;2022-08-11T18:45:14;32.60;41.30
22950;DHT22;11641;51.018;4.474;2022-08-11T18:48:03;32.30;41.70
22950;DHT22;11641;51.018;4.474;2022-08-11T18:50:51;32.20;42.20
22950;DHT22;11641;51.018;4.474;2022-08-11T18:53:38;32.00;42.70
22950;DHT22;11641;51.018;4.474;2022-08-11T18:56:26;31.80;42.70
22950;DHT22;11641;51.018;4.474;2022-08-11T18:59:13;31.60;43.40
22950;DHT22;11641;51.018;4.474;2022-08-11T19:02:01;31.50;43.70
22950;DHT22;11641;51.018;4.474;2022-08-11T19:04:46;31.30;43.90
22950;DHT22;11641;51.018;4.474;2022-08-11T19:07:30;31.10;44.20
22950;DHT22;11641;51.018;4.474;2022-08-11T19:10:18;31.00;44.40
22950;DHT22;11641;51.018;4.474;2022-08-11T19:13:06;30.90;44.70
22950;DHT22;11641;51.018;4.474;2022-08-11T19:15:52;30.70;45.40
22950;DHT22;11641;51.018;4.474;2022-08-11T19:18:38;30.60;45.70
22950;DHT22;11641;51.018;4.474;2022-08-11T19:21:22;30.40;45.80
22950;DHT22;11641;51.018;4.474;2022-08-11T19:24:07;30.30;46.20
22950;DHT22;11641;51.018;4.474;2022-08-11T19:26:52;30.20;46.40
22950;DHT22;11641;51.018;4.474;2022-08-11T19:29:39;30.10;46.50
22950;DHT22;11641;51.018;4.474;2022-08-11T19:32:25;30.00;47.20
22950;DHT22;11641;51.018;4.474;2022-08-11T19:35:10;29.90;46.80
22950;DHT22;11641;51.018;4.474;2022-08-11T19:37:55;29.80;47.00
22950;DHT22;11641;51.018;4.474;2022-08-11T19:40:43;29.60;47.50
22950;DHT22;11641;51.018;4.474;2022-08-11T19:43:30;29.60;48.10
22950;DHT22;11641;51.018;4.474;2022-08-11T19:46:22;29.40;48.00
22950;DHT22;11641;51.018;4.474;2022-08-11T19:49:08;29.40;48.70
22950;DHT22;11641;51.018;4.474;2022-08-11T19:51:54;29.30;48.80
22950;DHT22;11641;51.018;4.474;2022-08-11T19:54:40;29.20;49.20
22950;DHT22;11641;51.018;4.474;2022-08-11T19:57:25;29.20;49.60
22950;DHT22;11641;51.018;4.474;2022-08-11T20:00:18;29.10;49.70
22950;DHT22;11641;51.018;4.474;2022-08-11T20:03:05;29.00;49.50
22950;DHT22;11641;51.018;4.474;2022-08-11T20:05:55;29.00;50.40
22950;DHT22;11641;51.018;4.474;2022-08-11T20:08:42;28.90;50.30
22950;DHT22;11641;51.018;4.474;2022-08-11T20:11:34;28.80;50.80
22950;DHT22;11641;51.018;4.474;2022-08-11T20:14:21;28.70;51.00
22950;DHT22;11641;51.018;4.474;2022-08-11T20:17:08;28.60;50.90
22950;DHT22;11641;51.018;4.474;2022-08-11T20:19:56;28.50;50.80
22950;DHT22;11641;51.018;4.474;2022-08-11T20:22:41;28.50;51.40
22950;DHT22;11641;51.018;4.474;2022-08-11T20:25:26;28.40;51.90